Time;durP1;ratioP1;P1;durP2;ratioP2;P2;SDS_P1;SDS_P2;PMS_P1;PMS_P2;Temp;Humidity;BMP_temperature;BMP_pressure;BME280_temperature;BME280_humidity;BME280_pressure;Samples;Min_cycle;Max_cycle;Signal;HPM_P1;HPM_P2
2021/06/11 00:04:10;;;;;;;6.25;4.30;;;20.40;95.60;;;;;;10486330;28;20484;-60
2021/06/11 00:09:14;;;;;;;5.03;3.80;;;20.30;95.60;;;;;;10504204;28;20384;-61
2021/06/11 00:14:17;;;;;;;4.30;3.90;;;20.10;96.20;;;;;;10503649;28;20044;-62
2021/06/11 00:19:19;;;;;;;4.40;4.03;;;20.10;96.40;;;;;;10503971;28;20131;-61
2021/06/11 00:24:21;;;;;;;4.78;4.38;;;20.00;97.10;;;;;;10503831;28;20044;-60
2021/06/11 00:29:23;;;;;;;5.65;5.00;;;20.00;97.40;;;;;;10503755;28;20040;-61
2021/06/11 00:34:25;;;;;;;9.65;4.57;;;20.00;98.00;;;;;;10503681;28;20040;-61
2021/06/11 00:39:27;;;;;;;5.82;5.03;;;19.80;97.60;;;;;;10485692;28;20040;-61
2021/06/11 00:44:29;;;;;;;5.68;5.15;;;19.80;97.50;;;;;;10503675;28;20067;-60
2021/06/11 00:49:31;;;;;;;9.38;5.30;;;20.00;95.40;;;;;;10503249;28;20044;-62
2021/06/11 00:54:34;;;;;;;7.40;4.40;;;19.80;98.50;;;;;;10502507;28;20037;-61
2021/06/11 00:59:43;;;;;;;6.30;5.50;;;19.60;98.10;;;;;;10502456;28;20365;-61
2021/06/11 01:04:44;;;;;;;6.40;5.80;;;19.60;97.30;;;;;;10502131;28;20047;-61
2021/06/11 01:09:47;;;;;;;7.93;6.65;;;19.50;99.20;;;;;;10502273;28;20044;-61
2021/06/11 01:14:50;;;;;;;6.80;6.15;;;19.50;99.80;;;;;;10501753;28;20492;-61
2021/06/11 01:19:53;;;;;;;7.88;6.47;;;19.40;99.50;;;;;;10501119;28;20045;-61
2021/06/11 01:25:15;;;;;;;8.43;7.03;;;19.30;99.90;;;;;;10483555;28;20480;-60
2021/06/11 01:30:21;;;;;;;7.97;7.25;;;19.10;99.90;;;;;;10501683;28;20048;-61
2021/06/11 01:35:39;;;;;;;8.13;7.32;;;19.10;99.90;;;;;;10500843;28;20051;-62
2021/06/11 01:40:43;;;;;;;8.80;6.75;;;19.20;99.90;;;;;;10499691;28;20048;-61
2021/06/11 01:45:45;;;;;;;10.38;7.07;;;19.20;99.90;;;;;;10498447;28;20048;-60
2021/06/11 01:50:48;;;;;;;11.38;6.95;;;19.10;99.90;;;;;;10500321;28;20051;-61
2021/06/11 01:55:51;;;;;;;7.63;6.53;;;19.00;99.90;;;;;;10482145;28;20053;-60
2021/06/11 02:00:54;;;;;;;7.50;6.70;;;18.90;99.90;;;;;;10498981;28;20051;-62
2021/06/11 02:05:56;;;;;;;7.47;6.57;;;18.90;99.90;;;;;;10499817;28;20037;-61
2021/06/11 02:10:58;;;;;;;8.35;6.85;;;18.90;99.90;;;;;;10499247;28;20374;-62
2021/06/11 02:16:03;;;;;;;10.80;7.85;;;18.80;99.90;;;;;;10481128;28;20430;-61
2021/06/11 02:21:07;;;;;;;10.00;7.82;;;18.80;99.90;;;;;;10499716;28;20056;-60
2021/06/11 02:26:15;;;;;;;12.43;7.93;;;18.90;99.90;;;;;;10498986;28;20063;-62
2021/06/11 02:31:18;;;;;;;9.70;8.30;;;18.70;99.90;;;;;;10499259;28;20052;-62
2021/06/11 02:36:20;;;;;;;8.98;7.70;;;18.80;99.90;;;;;;10498438;28;20051;-62
2021/06/11 02:41:26;;;;;;;16.15;12.40;;;18.60;99.90;;;;;;10498750;28;20044;-60
2021/06/11 02:46:35;;;;;;;10.15;8.50;;;18.50;99.90;;;;;;10480596;28;20048;-61
2021/06/11 02:51:43;;;;;;;13.35;9.88;;;18.50;99.90;;;;;;10497819;28;20036;-61
2021/06/11 02:56:57;;;;;;;10.05;9.05;;;18.60;99.90;;;;;;10498262;28;20063;-60
2021/06/11 03:02:04;;;;;;;12.38;9.80;;;18.50;99.90;;;;;;10498744;28;20044;-60
2021/06/11 03:07:07;;;;;;;14.20;11.30;;;18.60;99.90;;;;;;10480277;28;20047;-61
2021/06/11 03:12:10;;;;;;;14.07;11.82;;;18.50;99.90;;;;;;10480091;28;20040;-62
2021/06/11 03:17:14;;;;;;;16.65;14.27;;;18.50;99.90;;;;;;10496837;28;20182;-60
2021/06/11 03:22:25;;;;;;;17.30;15.50;;;18.50;99.90;;;;;;10479533;28;20083;-61
2021/06/11 03:27:35;;;;;;;17.20;15.05;;;18.40;99.90;;;;;;10479734;28;20485;-61
2021/06/11 03:32:47;;;;;;;20.73;18.23;;;18.40;99.90;;;;;;10496384;28;20044;-62
2021/06/11 03:37:53;;;;;;;19.42;16.50;;;18.20;99.90;;;;;;10497616;28;20279;-62
2021/06/11 03:42:56;;;;;;;21.10;16.00;;;18.30;99.90;;;;;;10479776;28;20140;-60
2021/06/11 03:48:01;;;;;;;18.88;16.05;;;18.20;99.90;;;;;;10479677;28;20041;-61
2021/06/11 03:53:04;;;;;;;22.80;17.50;;;18.10;99.90;;;;;;10479578;28;20045;-61
2021/06/11 03:58:22;;;;;;;19.92;16.83;;;18.10;99.90;;;;;;10479514;28;20043;-61
2021/06/11 04:03:24;;;;;;;18.63;16.10;;;18.10;99.90;;;;;;10495750;28;20052;-61
2021/06/11 04:08:31;;;;;;;27.60;19.98;;;18.20;99.90;;;;;;10499701;28;20044;-61
2021/06/11 04:13:49;;;;;;;19.48;17.02;;;18.20;99.90;;;;;;10486607;28;20041;-61
2021/06/11 04:18:55;;;;;;;19.50;16.42;;;18.20;99.90;;;;;;10487033;28;20060;-61
2021/06/11 04:24:04;;;;;;;21.15;16.35;;;18.20;99.90;;;;;;10503928;28;20431;-62
2021/06/11 04:29:12;;;;;;;20.25;16.17;;;18.30;99.90;;;;;;10486058;28;20044;-61
2021/06/11 04:34:17;;;;;;;16.17;11.93;;;18.30;99.90;;;;;;10486073;28;20037;-61
2021/06/11 04:39:20;;;;;;;14.38;11.52;;;18.30;99.90;;;;;;10502975;28;20047;-61
2021/06/11 04:44:23;;;;;;;9.88;8.85;;;18.30;99.90;;;;;;10503643;28;20044;-62
2021/06/11 04:49:25;;;;;;;11.50;9.95;;;18.30;99.90;;;;;;10501703;28;20088;-61
2021/06/11 04:54:27;;;;;;;11.50;9.85;;;18.30;99.90;;;;;;10501285;28;20044;-61
2021/06/11 04:59:29;;;;;;;14.40;10.32;;;18.40;99.90;;;;;;10502538;28;20354;-61
2021/06/11 05:04:31;;;;;;;11.15;9.60;;;18.40;99.90;;;;;;10502202;28;20049;-61
2021/06/11 05:09:33;;;;;;;16.20;12.85;;;18.30;99.90;;;;;;10502408;28;20047;-61
2021/06/11 05:14:35;;;;;;;21.05;15.73;;;18.40;99.90;;;;;;10501701;28;20380;-61
2021/06/11 05:19:39;;;;;;;19.50;14.07;;;18.20;99.90;;;;;;10500703;28;20049;-61
2021/06/11 05:24:41;;;;;;;17.45;13.70;;;18.10;99.90;;;;;;10501202;28;20054;-60
2021/06/11 05:29:43;;;;;;;18.77;14.77;;;18.20;99.90;;;;;;10501313;28;20119;-61
2021/06/11 05:34:45;;;;;;;17.88;14.52;;;18.20;99.90;;;;;;10500988;28;20045;-61
2021/06/11 05:39:47;;;;;;;18.63;12.95;;;18.10;99.90;;;;;;10500848;28;20044;-61
2021/06/11 05:44:50;;;;;;;14.93;13.30;;;18.10;99.90;;;;;;10500824;28;20044;-61
2021/06/11 05:49:52;;;;;;;14.15;12.38;;;18.40;99.90;;;;;;10500560;28;20051;-63
2021/06/11 05:54:54;;;;;;;19.13;14.02;;;18.40;99.90;;;;;;10500451;28;20044;-61
2021/06/11 05:59:57;;;;;;;14.52;11.10;;;18.30;99.90;;;;;;10499991;28;20044;-62
2021/06/11 06:04:59;;;;;;;13.43;11.70;;;18.30;99.90;;;;;;10499687;28;20055;-62
2021/06/11 06:10:01;;;;;;;14.70;11.98;;;18.40;99.90;;;;;;10499543;28;20052;-61
2021/06/11 06:15:04;;;;;;;14.48;10.75;;;18.60;99.90;;;;;;10499029;28;20464;-62
2021/06/11 06:20:10;;;;;;;17.67;11.75;;;18.70;99.90;;;;;;10499247;28;20053;-60
2021/06/11 06:25:15;;;;;;;12.32;10.43;;;18.80;99.90;;;;;;10498918;28;20048;-60
2021/06/11 06:30:18;;;;;;;12.70;10.63;;;18.90;99.90;;;;;;10480792;28;20481;-60
2021/06/11 06:35:20;;;;;;;9.90;8.90;;;18.90;99.90;;;;;;10498630;28;20045;-60
2021/06/11 06:40:22;;;;;;;12.40;10.55;;;19.00;99.90;;;;;;10498707;28;20468;-61
2021/06/11 06:45:24;;;;;;;12.60;9.80;;;18.90;99.90;;;;;;10498416;28;20047;-61
2021/06/11 06:50:26;;;;;;;12.63;9.80;;;19.20;99.90;;;;;;10498499;28;20048;-61
2021/06/11 06:55:28;;;;;;;11.27;9.05;;;19.40;99.90;;;;;;10498279;28;20045;-62
2021/06/11 07:00:30;;;;;;;12.32;10.38;;;19.50;99.90;;;;;;10498555;28;20064;-61
2021/06/11 07:05:32;;;;;;;14.30;10.15;;;19.40;99.90;;;;;;10497813;28;20044;-61
2021/06/11 07:10:34;;;;;;;12.57;9.68;;;19.40;99.90;;;;;;10497724;28;20440;-62
2021/06/11 07:15:36;;;;;;;16.58;10.02;;;19.80;99.90;;;;;;10497811;28;20048;-62
2021/06/11 07:20:38;;;;;;;10.15;7.57;;;20.10;99.90;;;;;;10498428;28;20044;-61
2021/06/11 07:25:40;;;;;;;12.82;7.63;;;20.00;99.90;;;;;;10497727;28;20036;-62
2021/06/11 07:30:42;;;;;;;12.52;9.10;;;20.00;99.90;;;;;;10497432;28;20369;-62
2021/06/11 07:35:44;;;;;;;14.32;9.95;;;20.00;99.90;;;;;;10497295;28;20045;-62
2021/06/11 07:40:46;;;;;;;15.10;9.57;;;20.20;99.90;;;;;;10497493;28;20099;-61
2021/06/11 07:45:50;;;;;;;15.10;9.15;;;20.60;99.90;;;;;;10504176;28;20049;-61
2021/06/11 07:50:52;;;;;;;14.18;11.52;;;20.60;99.90;;;;;;10505254;28;20040;-61
2021/06/11 07:55:55;;;;;;;15.63;12.00;;;20.50;99.90;;;;;;10504863;28;20048;-60
2021/06/11 08:00:57;;;;;;;16.83;11.57;;;20.90;99.90;;;;;;10504931;28;20044;-61
2021/06/11 08:05:59;;;;;;;12.80;9.90;;;21.20;99.90;;;;;;10504738;28;20047;-61
2021/06/11 08:11:01;;;;;;;12.80;9.15;;;21.60;99.90;;;;;;10504419;28;20048;-61
2021/06/11 08:16:04;;;;;;;12.40;10.50;;;21.80;99.90;;;;;;10503910;28;20357;-62
2021/06/11 08:21:06;;;;;;;18.60;12.55;;;21.90;99.90;;;;;;10504173;28;20048;-60
2021/06/11 08:26:08;;;;;;;10.77;9.68;;;22.50;99.90;;;;;;10503679;28;20047;-61
2021/06/11 08:31:11;;;;;;;10.43;8.65;;;22.90;99.90;;;;;;10504331;28;20055;-62
2021/06/11 08:36:14;;;;;;;17.60;10.13;;;23.40;99.30;;;;;;10503386;28;20392;-62
2021/06/11 08:41:17;;;;;;;11.63;8.98;;;23.30;98.20;;;;;;10503619;28;20063;-61
2021/06/11 08:46:22;;;;;;;12.18;9.23;;;23.60;98.10;;;;;;10502692;28;20400;-62
2021/06/11 08:51:24;;;;;;;13.45;10.32;;;24.20;96.90;;;;;;10485178;28;20468;-62
2021/06/11 08:56:26;;;;;;;9.43;7.75;;;24.20;97.20;;;;;;10502401;28;20093;-61
2021/06/11 09:01:28;;;;;;;8.85;7.88;;;24.70;96.60;;;;;;10502476;28;20500;-61
2021/06/11 09:06:30;;;;;;;11.45;8.23;;;24.50;96.20;;;;;;10503023;28;20041;-64
2021/06/11 09:11:36;;;;;;;11.05;9.40;;;24.70;94.10;;;;;;10500773;28;20063;-62
2021/06/11 09:16:44;;;;;;;7.85;6.78;;;24.70;95.30;;;;;;10501957;28;20044;-63
2021/06/11 09:21:49;;;;;;;8.30;7.07;;;25.40;94.10;;;;;;10501962;28;20048;-62
2021/06/11 09:27:05;;;;;;;10.23;9.23;;;25.70;94.70;;;;;;10501386;28;20041;-63
2021/06/11 09:32:18;;;;;;;6.85;6.20;;;26.10;92.80;;;;;;10501081;28;20490;-61
2021/06/11 09:37:27;;;;;;;9.13;5.95;;;25.30;93.60;;;;;;10500973;28;20424;-62
2021/06/11 09:42:33;;;;;;;6.70;5.03;;;26.00;93.60;;;;;;10500953;28;20052;-63
2021/06/11 09:47:50;;;;;;;8.48;6.10;;;25.90;93.80;;;;;;10500562;28;20048;-63
2021/06/11 09:52:55;;;;;;;9.48;7.35;;;25.80;93.90;;;;;;10499921;28;20044;-64
2021/06/11 09:58:31;;;;;;;8.60;6.70;;;25.60;92.60;;;;;;10500113;28;20044;-62
2021/06/11 10:03:37;;;;;;;8.65;5.95;;;25.70;94.10;;;;;;10469054;28;20048;-62
2021/06/11 10:08:44;;;;;;;5.57;4.95;;;26.00;92.80;;;;;;10499244;28;20484;-63
2021/06/11 10:13:46;;;;;;;6.03;5.40;;;26.30;93.00;;;;;;10499395;28;20049;-63
2021/06/11 10:18:49;;;;;;;8.73;7.60;;;26.30;92.50;;;;;;10465305;28;20045;-62
2021/06/11 10:23:51;;;;;;;9.63;6.82;;;26.80;92.70;;;;;;10499627;28;20052;-62
2021/06/11 10:28:53;;;;;;;5.82;4.93;;;26.50;93.20;;;;;;10480913;28;20052;-62
2021/06/11 10:34:00;;;;;;;7.15;5.70;;;27.60;93.60;;;;;;10497668;28;20041;-62
2021/06/11 10:39:15;;;;;;;5.47;4.97;;;27.80;91.30;;;;;;10499017;28;20051;-61
2021/06/11 10:44:41;;;;;;;6.05;5.43;;;28.30;91.70;;;;;;10498738;28;20056;-62
2021/06/11 10:49:55;;;;;;;5.28;4.30;;;28.00;90.40;;;;;;10489491;28;20040;-62
2021/06/11 10:55:17;;;;;;;5.47;4.97;;;28.50;91.60;;;;;;10498341;28;20044;-63
2021/06/11 11:00:19;;;;;;;7.03;3.88;;;28.00;90.80;;;;;;10498295;28;20051;-62
2021/06/11 11:05:34;;;;;;;4.88;4.38;;;28.60;89.70;;;;;;10497772;28;20503;-62
2021/06/11 11:10:44;;;;;;;7.90;4.97;;;28.70;88.90;;;;;;10498024;28;20040;-63
2021/06/11 11:15:49;;;;;;;5.45;4.57;;;29.60;88.90;;;;;;10497802;28;20095;-62
2021/06/11 11:20:52;;;;;;;6.90;4.38;;;29.20;87.60;;;;;;10505091;28;20373;-62
2021/06/11 11:25:55;;;;;;;3.67;3.38;;;28.90;84.60;;;;;;10488878;28;20048;-62
2021/06/11 11:30:57;;;;;;;7.05;4.50;;;29.10;87.60;;;;;;10506019;28;20036;-62
2021/06/11 11:35:59;;;;;;;7.72;4.57;;;29.00;84.40;;;;;;10505686;28;20141;-62
2021/06/11 11:41:01;;;;;;;5.50;4.93;;;28.70;85.70;;;;;;10505676;28;20048;-62
2021/06/11 11:46:03;;;;;;;11.30;4.43;;;28.80;81.20;;;;;;10505545;28;20040;-62
2021/06/11 11:51:06;;;;;;;5.68;3.97;;;28.60;85.70;;;;;;10506002;28;20119;-63
2021/06/11 11:56:08;;;;;;;9.80;7.22;;;28.00;87.90;;;;;;10505056;28;20040;-62
2021/06/11 12:01:11;;;;;;;6.03;5.43;;;27.90;85.50;;;;;;10504985;28;20040;-62
2021/06/11 12:06:13;;;;;;;5.43;4.93;;;28.30;85.90;;;;;;10486762;28;20040;-63
2021/06/11 12:11:15;;;;;;;7.63;6.82;;;28.80;79.50;;;;;;10504417;28;20041;-62
2021/06/11 12:16:17;;;;;;;10.65;8.13;;;29.80;86.90;;;;;;10504215;28;20048;-62
2021/06/11 12:21:20;;;;;;;7.95;5.95;;;30.50;83.70;;;;;;10461748;28;20090;-62
2021/06/11 12:26:22;;;;;;;6.93;5.20;;;30.10;78.50;;;;;;10462147;28;20135;-62
2021/06/11 12:31:24;;;;;;;9.20;6.90;;;30.40;83.10;;;;;;10461825;28;20041;-62
2021/06/11 12:36:26;;;;;;;6.53;5.93;;;29.60;80.10;;;;;;10461778;28;20506;-62
2021/06/11 12:41:34;;;;;;;5.65;5.13;;;30.10;81.00;;;;;;10463006;28;20116;-62
2021/06/11 12:46:36;;;;;;;6.25;5.40;;;30.00;79.50;;;;;;10461742;28;20401;-62
2021/06/11 12:51:38;;;;;;;5.18;4.72;;;29.60;78.80;;;;;;10460696;28;20132;-63
2021/06/11 12:56:41;;;;;;;7.57;6.60;;;29.80;79.90;;;;;;10461315;28;20043;-62
2021/06/11 13:01:43;;;;;;;6.80;5.18;;;29.80;81.90;;;;;;10461607;28;20385;-62
2021/06/11 13:06:45;;;;;;;8.00;3.90;;;29.20;81.00;;;;;;10460429;28;20481;-62
2021/06/11 13:11:47;;;;;;;8.95;8.05;;;29.50;81.10;;;;;;10460644;28;20047;-62
2021/06/11 13:16:49;;;;;;;12.32;9.65;;;29.20;80.90;;;;;;10460731;28;20045;-63
2021/06/11 13:21:52;;;;;;;18.50;11.75;;;28.50;82.00;;;;;;10494876;28;20062;-62
2021/06/11 13:26:55;;;;;;;10.65;8.15;;;27.70;83.90;;;;;;10501163;28;20579;-61
2021/06/11 13:31:57;;;;;;;8.98;6.50;;;28.40;84.60;;;;;;10501418;28;20052;-62
2021/06/11 13:37:01;;;;;;;9.38;6.40;;;29.00;85.40;;;;;;10501057;28;20067;-63
2021/06/11 13:42:03;;;;;;;5.57;5.07;;;29.60;81.30;;;;;;10500352;28;20051;-62
2021/06/11 13:47:10;;;;;;;8.88;6.28;;;29.70;79.50;;;;;;10500480;28;20385;-63
2021/06/11 13:52:12;;;;;;;6.70;6.00;;;29.70;82.10;;;;;;10500527;28;20094;-62
2021/06/11 13:57:14;;;;;;;6.50;5.65;;;29.80;78.90;;;;;;10500170;28;20047;-62
2021/06/11 14:02:16;;;;;;;7.90;6.10;;;30.60;80.20;;;;;;10500925;28;20045;-62
2021/06/11 14:07:18;;;;;;;9.48;5.75;;;31.10;77.30;;;;;;10499726;28;20044;-63
2021/06/11 14:12:20;;;;;;;8.48;5.50;;;30.50;81.00;;;;;;10499662;28;20047;-62
2021/06/11 14:17:22;;;;;;;10.27;6.55;;;31.30;75.10;;;;;;10499269;28;20427;-62
2021/06/11 14:22:24;;;;;;;7.03;6.30;;;31.00;75.70;;;;;;10499199;28;20052;-62
2021/06/11 14:27:27;;;;;;;10.15;7.00;;;31.20;78.60;;;;;;10498993;28;20361;-62
2021/06/11 14:32:28;;;;;;;9.55;6.97;;;31.00;74.00;;;;;;10499217;28;20044;-62
2021/06/11 14:37:31;;;;;;;7.70;6.75;;;31.10;77.70;;;;;;10498469;28;20496;-62
2021/06/11 14:42:33;;;;;;;7.43;5.35;;;31.20;78.10;;;;;;10498581;28;20045;-63
2021/06/11 14:47:37;;;;;;;7.10;3.97;;;30.80;75.20;;;;;;10498494;28;20079;-63
2021/06/11 14:52:45;;;;;;;3.88;3.53;;;31.10;70.40;;;;;;10498032;28;20385;-63
2021/06/11 14:57:47;;;;;;;2.90;2.70;;;31.20;72.90;;;;;;10498252;28;20048;-62
2021/06/11 15:02:49;;;;;;;2.33;2.22;;;31.40;73.20;;;;;;10498752;28;20056;-62
2021/06/11 15:07:51;;;;;;;3.78;3.17;;;31.40;72.30;;;;;;10498305;28;20052;-61
2021/06/11 15:12:53;;;;;;;4.00;3.17;;;30.40;71.60;;;;;;10497970;28;20055;-62
2021/06/11 15:17:55;;;;;;;3.05;2.75;;;30.50;71.90;;;;;;10498126;28;20078;-62
2021/06/11 15:22:58;;;;;;;5.03;4.03;;;30.50;74.40;;;;;;10496769;28;20396;-62
2021/06/11 15:28:00;;;;;;;3.38;3.05;;;29.90;72.90;;;;;;10497232;28;20401;-62
2021/06/11 15:33:04;;;;;;;3.42;2.58;;;30.10;73.20;;;;;;10497886;28;20070;-62
2021/06/11 15:38:08;;;;;;;3.55;2.25;;;30.10;75.30;;;;;;10497308;28;20472;-62
2021/06/11 15:43:10;;;;;;;3.97;2.97;;;30.10;74.60;;;;;;10497041;28;20546;-62
2021/06/11 15:48:15;;;;;;;3.33;3.05;;;30.40;69.90;;;;;;10497366;28;20040;-62
2021/06/11 15:53:18;;;;;;;2.53;2.33;;;30.00;74.30;;;;;;10497364;28;20053;-62
2021/06/11 15:58:20;;;;;;;2.47;2.35;;;29.80;71.80;;;;;;10479445;28;20048;-63
2021/06/11 16:03:23;;;;;;;3.20;2.65;;;29.70;72.60;;;;;;10498183;28;20055;-62
2021/06/11 16:08:25;;;;;;;4.63;2.42;;;29.40;73.60;;;;;;10504613;28;20037;-63
2021/06/11 16:13:28;;;;;;;2.90;2.70;;;29.50;72.70;;;;;;10504111;28;20384;-61
2021/06/11 16:18:30;;;;;;;4.07;2.35;;;29.80;72.80;;;;;;10504627;28;20048;-63
2021/06/11 16:23:32;;;;;;;4.10;1.85;;;30.00;70.60;;;;;;10503015;28;20128;-62
2021/06/11 16:28:34;;;;;;;1.20;1.17;;;29.50;72.70;;;;;;10486686;28;20040;-62
2021/06/11 16:33:36;;;;;;;3.00;1.20;;;29.30;69.50;;;;;;10503801;28;20037;-62
2021/06/11 16:38:40;;;;;;;0.75;0.73;;;29.30;74.80;;;;;;10485967;28;20063;-62
2021/06/11 16:43:42;;;;;;;0.85;0.80;;;28.80;71.00;;;;;;10503016;28;20055;-62
2021/06/11 16:48:45;;;;;;;1.55;1.08;;;28.30;71.10;;;;;;10484945;28;20051;-62
2021/06/11 16:53:47;;;;;;;2.67;0.90;;;28.30;71.00;;;;;;10502941;28;20052;-62
2021/06/11 16:58:49;;;;;;;3.42;1.10;;;28.40;72.10;;;;;;10502763;28;20128;-62
2021/06/11 17:03:52;;;;;;;1.27;1.15;;;28.80;72.70;;;;;;10502444;28;20472;-63
2021/06/11 17:08:55;;;;;;;3.80;1.70;;;28.30;73.40;;;;;;10502451;28;20045;-62
2021/06/11 17:13:56;;;;;;;1.45;1.35;;;28.30;72.90;;;;;;10501738;28;20477;-62
2021/06/11 17:18:59;;;;;;;2.53;1.90;;;28.10;74.00;;;;;;10501681;28;20421;-62
2021/06/11 17:24:01;;;;;;;3.92;1.83;;;27.50;74.90;;;;;;10501721;28;20044;-62
2021/06/11 17:29:03;;;;;;;3.13;1.73;;;27.10;76.30;;;;;;10501442;28;20491;-62
2021/06/11 17:34:05;;;;;;;3.13;2.50;;;27.00;76.20;;;;;;10501105;28;20400;-62
2021/06/11 17:39:07;;;;;;;4.55;4.07;;;27.00;76.60;;;;;;10501769;28;20048;-64
2021/06/11 17:44:13;;;;;;;7.35;4.45;;;26.70;77.20;;;;;;10501070;28;20055;-62
2021/06/11 17:49:15;;;;;;;4.95;4.55;;;26.90;77.60;;;;;;10500741;28;20049;-61
2021/06/11 17:54:17;;;;;;;6.05;4.22;;;26.50;76.50;;;;;;10482280;28;20052;-63
2021/06/11 17:59:20;;;;;;;8.35;4.90;;;26.30;76.90;;;;;;10500022;28;20063;-62
2021/06/11 18:04:34;;;;;;;5.25;4.70;;;25.90;77.60;;;;;;10500008;28;20063;-63
2021/06/11 18:09:39;;;;;;;10.27;5.97;;;26.00;78.60;;;;;;10482275;28;20392;-62
2021/06/11 18:14:41;;;;;;;11.90;7.82;;;25.80;78.80;;;;;;10500141;28;20046;-60
2021/06/11 18:19:43;;;;;;;10.57;8.23;;;25.50;81.60;;;;;;10499213;28;20480;-61
2021/06/11 18:24:45;;;;;;;9.30;7.38;;;25.30;82.20;;;;;;10498909;28;20048;-62
2021/06/11 18:29:56;;;;;;;10.88;8.02;;;25.20;82.80;;;;;;10499045;28;20041;-62
2021/06/11 18:35:09;;;;;;;11.35;7.80;;;25.00;83.60;;;;;;10498935;28;20048;-62
2021/06/11 18:40:13;;;;;;;6.57;5.68;;;25.20;83.80;;;;;;10499247;28;20048;-62
2021/06/11 18:45:23;;;;;;;7.10;4.55;;;25.00;86.70;;;;;;10498444;28;20044;-61
2021/06/11 18:50:25;;;;;;;7.53;4.63;;;24.90;88.30;;;;;;10498924;28;20041;-61
2021/06/11 18:55:28;;;;;;;9.38;5.43;;;24.70;89.60;;;;;;10497270;28;20048;-62
2021/06/11 19:00:31;;;;;;;6.07;4.55;;;24.50;89.80;;;;;;10499061;28;20041;-61
2021/06/11 19:05:33;;;;;;;9.57;6.80;;;24.50;89.50;;;;;;10498133;28;20549;-62
2021/06/11 19:10:44;;;;;;;12.00;9.77;;;24.30;90.20;;;;;;10498456;28;20054;-61
2021/06/11 19:15:45;;;;;;;13.83;9.27;;;23.90;90.70;;;;;;10497827;28;20056;-62
2021/06/11 19:20:47;;;;;;;13.25;9.40;;;23.80;90.70;;;;;;10497794;28;20060;-61
2021/06/11 19:26:15;;;;;;;8.73;7.75;;;23.70;91.60;;;;;;10480528;28;20041;-62
2021/06/11 19:31:39;;;;;;;13.25;8.48;;;23.80;91.00;;;;;;10498209;28;20063;-62
2021/06/11 19:36:58;;;;;;;15.55;8.88;;;23.60;91.60;;;;;;10497395;28;20082;-63
2021/06/11 19:42:22;;;;;;;10.23;8.02;;;23.50;91.80;;;;;;10504605;28;20041;-63
2021/06/11 19:47:24;;;;;;;9.55;7.18;;;23.20;92.20;;;;;;10505755;28;20063;-61
2021/06/11 19:52:30;;;;;;;23.88;19.10;;;23.20;92.90;;;;;;10505569;28;20045;-63
2021/06/11 19:57:31;;;;;;;8.35;6.88;;;23.00;93.30;;;;;;10487136;28;20380;-62
2021/06/11 20:02:33;;;;;;;10.43;6.53;;;22.90;93.60;;;;;;10487098;28;20473;-61
2021/06/11 20:07:37;;;;;;;9.07;6.68;;;22.70;93.80;;;;;;10504796;28;20052;-61
2021/06/11 20:12:39;;;;;;;10.63;6.57;;;22.70;93.70;;;;;;10504453;28;20036;-61
2021/06/11 20:17:42;;;;;;;8.55;5.07;;;22.50;94.50;;;;;;10504367;28;20041;-62
2021/06/11 20:22:44;;;;;;;6.47;4.78;;;22.50;94.40;;;;;;10504302;28;20074;-63
2021/06/11 20:27:46;;;;;;;6.95;4.50;;;22.50;94.30;;;;;;10504030;28;20047;-62
2021/06/11 20:32:48;;;;;;;6.07;4.50;;;22.50;94.40;;;;;;10503804;28;20044;-61
2021/06/11 20:37:50;;;;;;;4.63;4.15;;;22.40;95.20;;;;;;10503372;28;20044;-63
2021/06/11 20:42:52;;;;;;;5.38;4.88;;;22.30;94.50;;;;;;10503497;28;20079;-62
2021/06/11 20:47:57;;;;;;;8.98;5.18;;;22.50;94.20;;;;;;10502936;28;20045;-60
2021/06/11 20:52:59;;;;;;;5.60;5.10;;;22.50;94.10;;;;;;10502621;28;20044;-61
2021/06/11 20:58:11;;;;;;;7.60;5.45;;;22.30;94.80;;;;;;10502818;28;20041;-62
2021/06/11 21:03:12;;;;;;;8.25;5.53;;;22.20;96.00;;;;;;10502686;28;20053;-61
2021/06/11 21:08:14;;;;;;;6.22;5.63;;;22.00;96.20;;;;;;10502432;28;20044;-62
2021/06/11 21:13:16;;;;;;;6.30;4.50;;;21.80;96.50;;;;;;10502140;28;20044;-63
2021/06/11 21:18:18;;;;;;;5.82;5.20;;;21.90;95.80;;;;;;10501990;28;20057;-62
2021/06/11 21:23:20;;;;;;;7.18;4.55;;;21.90;96.40;;;;;;10502006;28;20041;-63
2021/06/11 21:28:22;;;;;;;5.57;4.85;;;21.70;95.70;;;;;;10501323;28;20424;-62
2021/06/11 21:33:25;;;;;;;6.47;5.30;;;21.70;95.80;;;;;;10501538;28;20040;-61
2021/06/11 21:38:27;;;;;;;7.68;4.90;;;21.40;98.00;;;;;;10501341;28;20037;-62
2021/06/11 21:43:31;;;;;;;9.18;4.45;;;21.20;98.40;;;;;;10501512;28;20049;-62
2021/06/11 21:48:34;;;;;;;7.15;5.45;;;21.20;99.30;;;;;;10500880;28;20045;-61
2021/06/11 21:53:39;;;;;;;4.95;4.40;;;21.00;98.70;;;;;;10500213;28;20427;-61
2021/06/11 21:58:43;;;;;;;5.78;4.35;;;21.00;99.30;;;;;;10500204;28;20380;-62
2021/06/11 22:03:46;;;;;;;8.50;4.50;;;20.70;99.90;;;;;;10499134;28;20488;-62
2021/06/11 22:08:48;;;;;;;3.50;3.20;;;20.80;99.90;;;;;;10499822;28;20047;-62
2021/06/11 22:13:51;;;;;;;3.90;3.22;;;20.50;99.90;;;;;;10499703;28;20036;-64
2021/06/11 22:18:52;;;;;;;4.32;3.92;;;20.50;99.90;;;;;;10499540;28;20080;-61
2021/06/11 22:23:55;;;;;;;4.63;3.75;;;20.40;99.90;;;;;;10499447;28;20048;-62
2021/06/11 22:28:56;;;;;;;5.75;3.42;;;20.40;99.90;;;;;;10499897;28;20037;-62
2021/06/11 22:33:58;;;;;;;6.05;4.22;;;20.50;99.90;;;;;;10498761;28;20037;-62
2021/06/11 22:39:01;;;;;;;8.48;4.63;;;20.30;99.90;;;;;;10499441;28;20127;-61
2021/06/11 22:44:04;;;;;;;4.55;4.18;;;20.20;99.90;;;;;;10498678;28;20518;-61
2021/06/11 22:49:07;;;;;;;8.65;3.97;;;20.20;99.90;;;;;;10498697;28;20040;-62
2021/06/11 22:54:09;;;;;;;5.53;4.63;;;20.10;99.90;;;;;;10498485;28;20045;-61
2021/06/11 22:59:11;;;;;;;5.20;4.70;;;20.00;99.90;;;;;;10498511;28;20055;-61
2021/06/11 23:04:13;;;;;;;6.43;5.55;;;19.90;99.90;;;;;;10498002;28;20491;-61
2021/06/11 23:09:15;;;;;;;6.22;5.47;;;20.00;99.90;;;;;;10498003;28;20496;-61
2021/06/11 23:14:17;;;;;;;6.50;5.75;;;19.90;99.90;;;;;;10497811;28;20465;-61
2021/06/11 23:19:19;;;;;;;7.18;6.47;;;19.90;99.90;;;;;;10497991;28;20365;-62
2021/06/11 23:24:21;;;;;;;10.02;7.32;;;19.80;99.90;;;;;;10497771;28;20385;-61
2021/06/11 23:29:23;;;;;;;8.88;6.68;;;19.60;99.90;;;;;;10497916;28;20056;-60
2021/06/11 23:34:27;;;;;;;10.00;6.70;;;19.80;99.90;;;;;;10497633;28;20047;-61
2021/06/11 23:39:29;;;;;;;10.32;6.68;;;19.60;99.90;;;;;;10497905;28;20037;-62
2021/06/11 23:44:32;;;;;;;7.65;6.68;;;19.50;99.90;;;;;;10497394;28;20040;-61
2021/06/11 23:49:34;;;;;;;8.30;6.78;;;19.70;99.90;;;;;;10497379;28;20055;-62
2021/06/11 23:54:36;;;;;;;7.60;6.85;;;19.80;99.90;;;;;;10479516;28;20044;-62
2021/06/11 23:59:38;;;;;;;9.52;7.05;;;19.60;99.90;;;;;;10497323;28;20049;-62
